Time;durP1;ratioP1;P1;durP2;ratioP2;P2;SDS_P1;SDS_P2;PMS_P1;PMS_P2;Temp;Humidity;BMP_temperature;BMP_pressure;BME280_temperature;BME280_humidity;BME280_pressure;Samples;Min_cycle;Max_cycle;Signal;HPM_P1;HPM_P2
2023/08/17 00:02:22;;;;;;;7.13;3.60;;;16.60;99.90;;;;;;4876485;29;20192;-63
2023/08/17 00:04:47;;;;;;;9.15;3.65;;;16.70;99.90;;;;;;4883891;29;20194;-66
2023/08/17 00:07:13;;;;;;;6.18;3.13;;;16.60;99.90;;;;;;4894914;29;20692;-64
2023/08/17 00:09:40;;;;;;;9.32;3.80;;;16.60;99.90;;;;;;4897088;29;20199;-65
2023/08/17 00:12:06;;;;;;;8.35;3.50;;;16.60;99.90;;;;;;4886342;29;20189;-64
2023/08/17 00:14:32;;;;;;;6.35;3.22;;;16.70;99.90;;;;;;4890065;29;20197;-64
2023/08/17 00:16:58;;;;;;;9.23;3.53;;;16.70;99.90;;;;;;4891685;29;20274;-64
2023/08/17 00:19:24;;;;;;;11.80;3.40;;;16.70;99.90;;;;;;4890296;29;20196;-64
2023/08/17 00:21:52;;;;;;;7.53;3.22;;;16.70;99.90;;;;;;4893532;29;20637;-64
2023/08/17 00:24:18;;;;;;;7.53;3.67;;;16.70;99.90;;;;;;4882706;29;20252;-63
2023/08/17 00:26:44;;;;;;;10.35;3.13;;;16.70;99.90;;;;;;4893054;29;20189;-63
2023/08/17 00:29:10;;;;;;;8.30;3.75;;;16.80;99.90;;;;;;4889158;29;20219;-64
2023/08/17 00:31:36;;;;;;;11.10;3.55;;;16.80;99.90;;;;;;4893705;29;20216;-63
2023/08/17 00:34:02;;;;;;;8.55;3.63;;;16.80;99.90;;;;;;4894998;29;20665;-65
2023/08/17 00:36:28;;;;;;;10.73;3.80;;;16.80;99.90;;;;;;4875750;29;20227;-66
2023/08/17 00:38:53;;;;;;;5.97;3.22;;;16.80;99.90;;;;;;4884980;29;20709;-65
2023/08/17 00:41:19;;;;;;;9.90;3.63;;;16.80;99.90;;;;;;4899751;29;20189;-64
2023/08/17 00:43:45;;;;;;;10.63;3.83;;;16.80;99.90;;;;;;4891624;29;20180;-65
2023/08/17 00:46:12;;;;;;;9.85;3.53;;;16.80;99.90;;;;;;4891393;29;20192;-67
2023/08/17 00:48:38;;;;;;;7.80;3.40;;;16.80;99.90;;;;;;4887925;29;20209;-64
2023/08/17 00:51:05;;;;;;;8.50;4.00;;;16.80;99.90;;;;;;4890965;29;20229;-65
2023/08/17 00:53:32;;;;;;;8.27;3.83;;;16.80;99.90;;;;;;4893446;29;20557;-64
2023/08/17 00:56:00;;;;;;;7.10;3.58;;;16.80;99.90;;;;;;4894888;29;20748;-65
2023/08/17 00:58:27;;;;;;;7.05;3.88;;;16.70;99.90;;;;;;4890440;29;20181;-63
2023/08/17 01:00:53;;;;;;;9.82;3.83;;;16.70;99.90;;;;;;4885462;29;20208;-65
2023/08/17 01:03:21;;;;;;;7.43;3.75;;;16.70;99.90;;;;;;4885786;29;20204;-65
2023/08/17 01:05:47;;;;;;;7.22;3.63;;;16.60;99.90;;;;;;4907243;29;20184;-65
2023/08/17 01:08:13;;;;;;;13.43;4.32;;;16.60;99.90;;;;;;4892558;29;20196;-66
2023/08/17 01:11:01;;;;;;;10.90;4.40;;;16.60;99.90;;;;;;4895707;29;20252;-66
2023/08/17 01:13:38;;;;;;;8.18;4.30;;;16.50;99.90;;;;;;4893262;29;20188;-65
2023/08/17 01:16:08;;;;;;;7.80;4.40;;;16.40;99.90;;;;;;4898630;29;20275;-66
2023/08/17 01:18:38;;;;;;;7.88;4.20;;;16.40;99.90;;;;;;4886095;29;20236;-66
2023/08/17 01:21:08;;;;;;;11.85;4.68;;;16.40;99.90;;;;;;4896139;29;20271;-65
2023/08/17 01:23:34;;;;;;;6.90;4.10;;;16.40;99.90;;;;;;4888757;29;20248;-64
2023/08/17 01:26:00;;;;;;;9.52;4.13;;;16.40;99.90;;;;;;4886836;29;20259;-66
2023/08/17 01:28:26;;;;;;;9.20;4.05;;;16.40;99.90;;;;;;4857494;29;20205;-66
2023/08/17 01:31:00;;;;;;;11.48;3.97;;;16.30;99.90;;;;;;4880052;29;20768;-65
2023/08/17 01:33:36;;;;;;;12.10;4.20;;;16.40;99.90;;;;;;4882460;29;20284;-67
2023/08/17 01:36:25;;;;;;;8.65;3.90;;;16.30;99.90;;;;;;4892151;29;20212;-63
2023/08/17 01:39:01;;;;;;;10.40;3.85;;;16.40;99.90;;;;;;4885849;29;20635;-65
2023/08/17 01:41:37;;;;;;;8.95;3.60;;;16.40;99.90;;;;;;4890841;29;20189;-65
2023/08/17 01:44:04;;;;;;;11.70;4.15;;;16.30;99.90;;;;;;4883827;29;20284;-65
2023/08/17 01:46:32;;;;;;;11.13;5.25;;;16.30;99.90;;;;;;4888966;29;20659;-65
2023/08/17 01:48:58;;;;;;;9.40;4.07;;;16.30;99.90;;;;;;4880515;29;20204;-66
2023/08/17 01:51:25;;;;;;;6.82;3.50;;;16.30;99.90;;;;;;4883482;29;20752;-66
2023/08/17 01:53:51;;;;;;;10.18;3.75;;;16.30;99.90;;;;;;4884393;29;20193;-64
2023/08/17 01:56:17;;;;;;;7.65;3.88;;;16.30;99.90;;;;;;4885240;29;20303;-66
2023/08/17 01:58:44;;;;;;;8.32;3.58;;;16.30;99.90;;;;;;4875658;29;20284;-66
2023/08/17 02:01:10;;;;;;;9.43;5.60;;;16.30;99.90;;;;;;4889285;29;20197;-64
2023/08/17 02:03:36;;;;;;;10.02;5.95;;;16.30;99.90;;;;;;4897302;29;20192;-64
2023/08/17 02:06:02;;;;;;;11.02;5.35;;;16.30;99.90;;;;;;4890350;29;20670;-64
2023/08/17 02:08:30;;;;;;;8.93;4.72;;;16.30;99.90;;;;;;4883341;29;20611;-64
2023/08/17 02:10:56;;;;;;;9.27;4.20;;;16.30;99.90;;;;;;4888498;29;20277;-65
2023/08/17 02:13:22;;;;;;;8.50;4.57;;;16.30;99.90;;;;;;4891624;29;20370;-62
2023/08/17 02:15:48;;;;;;;9.02;3.70;;;16.30;99.90;;;;;;4888745;29;20870;-65
2023/08/17 02:18:14;;;;;;;9.63;3.38;;;16.30;99.90;;;;;;4893853;29;20200;-64
2023/08/17 02:20:40;;;;;;;7.45;3.40;;;16.30;99.90;;;;;;4887619;29;20197;-65
2023/08/17 02:23:06;;;;;;;8.30;3.50;;;16.30;99.90;;;;;;4886083;29;20184;-64
2023/08/17 02:25:35;;;;;;;10.70;3.63;;;16.20;99.90;;;;;;4897500;29;20196;-64
2023/08/17 02:28:02;;;;;;;7.50;3.38;;;16.30;99.90;;;;;;4892041;29;20279;-64
2023/08/17 02:30:28;;;;;;;9.50;3.35;;;16.30;99.90;;;;;;4894565;29;20240;-65
2023/08/17 02:32:57;;;;;;;9.02;3.58;;;16.30;99.90;;;;;;4893336;29;20291;-65
2023/08/17 02:35:23;;;;;;;7.75;3.15;;;16.30;99.90;;;;;;4895035;29;20272;-64
2023/08/17 02:37:49;;;;;;;9.32;2.70;;;16.30;99.90;;;;;;4901818;29;20220;-64
2023/08/17 02:40:15;;;;;;;8.73;3.10;;;16.30;99.90;;;;;;4897680;29;20236;-64
2023/08/17 02:42:41;;;;;;;7.25;2.70;;;16.30;99.90;;;;;;4876297;29;20200;-64
2023/08/17 02:45:08;;;;;;;8.10;3.17;;;16.30;99.90;;;;;;4876656;29;20221;-64
2023/08/17 02:47:35;;;;;;;7.28;3.70;;;16.30;99.90;;;;;;4894980;29;20201;-64
2023/08/17 02:50:01;;;;;;;7.07;3.13;;;16.30;99.90;;;;;;4896598;29;20196;-64
2023/08/17 02:52:27;;;;;;;7.43;3.40;;;16.30;99.90;;;;;;4897237;29;20207;-65
2023/08/17 02:54:53;;;;;;;9.73;3.13;;;16.40;99.90;;;;;;4897374;29;20666;-63
2023/08/17 02:57:19;;;;;;;9.20;3.13;;;16.40;99.90;;;;;;4893772;29;20217;-65
2023/08/17 02:59:46;;;;;;;5.68;2.92;;;16.30;99.90;;;;;;4894079;29;20197;-64
2023/08/17 03:02:12;;;;;;;6.90;3.13;;;16.30;99.90;;;;;;4890314;29;20180;-65
2023/08/17 03:04:37;;;;;;;14.73;3.15;;;16.30;99.90;;;;;;4879814;29;20280;-67
2023/08/17 03:07:03;;;;;;;6.25;2.97;;;16.40;99.90;;;;;;4909297;29;20542;-67
2023/08/17 03:09:29;;;;;;;12.90;3.28;;;16.30;99.90;;;;;;4897696;29;20227;-65
2023/08/17 03:11:55;;;;;;;8.95;3.25;;;16.30;99.90;;;;;;4895681;29;20188;-65
2023/08/17 03:14:22;;;;;;;7.82;3.20;;;16.30;99.90;;;;;;4897596;29;20677;-65
2023/08/17 03:16:48;;;;;;;9.25;3.20;;;16.30;99.90;;;;;;4895959;29;20701;-65
2023/08/17 03:19:15;;;;;;;8.27;3.10;;;16.30;99.90;;;;;;4888617;29;20204;-65
2023/08/17 03:21:43;;;;;;;11.20;3.30;;;16.30;99.90;;;;;;4894851;29;20252;-66
2023/08/17 03:24:10;;;;;;;4.82;3.28;;;16.30;99.90;;;;;;4873745;29;20196;-66
2023/08/17 03:26:36;;;;;;;9.05;3.30;;;16.30;99.90;;;;;;4892022;29;20228;-63
2023/08/17 03:29:02;;;;;;;12.18;3.72;;;16.30;99.90;;;;;;4888031;29;20197;-64
2023/08/17 03:31:28;;;;;;;9.68;3.17;;;16.30;99.90;;;;;;4893685;29;20225;-65
2023/08/17 03:33:55;;;;;;;8.63;2.72;;;16.20;99.90;;;;;;4885824;29;20205;-66
2023/08/17 03:36:21;;;;;;;13.90;3.15;;;16.20;99.90;;;;;;4892447;29;20220;-65
2023/08/17 03:38:47;;;;;;;8.10;3.20;;;16.20;99.90;;;;;;4877886;29;20186;-64
2023/08/17 03:41:13;;;;;;;9.15;3.08;;;16.20;99.90;;;;;;4876381;29;20197;-64
2023/08/17 03:43:39;;;;;;;6.78;2.75;;;16.20;99.90;;;;;;4908773;29;20236;-65
2023/08/17 03:46:05;;;;;;;8.30;2.97;;;16.20;99.90;;;;;;4909912;29;20275;-63
2023/08/17 03:48:31;;;;;;;7.78;2.75;;;16.20;99.90;;;;;;4911938;29;20569;-65
2023/08/17 03:50:57;;;;;;;8.77;2.92;;;16.20;99.90;;;;;;4896627;29;20192;-66
2023/08/17 03:53:23;;;;;;;8.38;2.83;;;16.20;99.90;;;;;;4881281;29;20190;-65
2023/08/17 03:55:50;;;;;;;9.93;3.38;;;16.20;99.90;;;;;;4878861;29;20224;-66
2023/08/17 03:58:17;;;;;;;8.20;3.03;;;16.20;99.90;;;;;;4895237;29;20200;-64
2023/08/17 04:00:52;;;;;;;15.45;3.70;;;16.20;99.90;;;;;;4894590;29;20275;-65
2023/08/17 04:03:24;;;;;;;5.97;3.08;;;16.10;99.90;;;;;;4880744;29;20267;-63
2023/08/17 04:05:50;;;;;;;6.90;3.33;;;16.10;99.90;;;;;;4907809;29;20697;-65
2023/08/17 04:08:16;;;;;;;7.13;3.30;;;16.10;99.90;;;;;;4891590;29;20195;-62
2023/08/17 04:10:42;;;;;;;6.22;3.55;;;16.10;99.90;;;;;;4894640;29;20192;-64
2023/08/17 04:13:08;;;;;;;8.27;3.65;;;16.00;99.90;;;;;;4892516;29;20560;-64
2023/08/17 04:15:34;;;;;;;8.85;3.95;;;16.00;99.90;;;;;;4895620;29;20199;-65
2023/08/17 04:18:00;;;;;;;8.68;3.83;;;16.00;99.90;;;;;;4898598;29;20211;-65
2023/08/17 04:20:26;;;;;;;9.48;4.50;;;16.00;99.90;;;;;;4886608;29;20215;-65
2023/08/17 04:22:52;;;;;;;8.27;4.13;;;15.90;99.90;;;;;;4889987;29;20646;-65
2023/08/17 04:25:19;;;;;;;9.60;3.85;;;15.90;99.90;;;;;;4881758;29;20688;-65
2023/08/17 04:27:45;;;;;;;10.55;4.05;;;15.90;99.90;;;;;;4884380;29;20579;-65
2023/08/17 04:30:11;;;;;;;11.88;4.00;;;15.90;99.90;;;;;;4893300;29;20240;-66
2023/08/17 04:32:52;;;;;;;9.77;3.97;;;15.90;99.90;;;;;;4894951;29;20216;-66
2023/08/17 04:35:20;;;;;;;7.78;3.75;;;15.90;99.90;;;;;;4881557;29;20194;-66
2023/08/17 04:37:47;;;;;;;20.05;8.93;;;15.80;99.90;;;;;;4892739;29;20216;-66
2023/08/17 04:40:13;;;;;;;25.50;12.57;;;15.90;99.90;;;;;;4893868;29;20199;-65
2023/08/17 04:42:40;;;;;;;17.73;8.57;;;15.90;99.90;;;;;;4879848;29;20202;-65
2023/08/17 04:45:06;;;;;;;22.85;7.10;;;15.80;99.90;;;;;;4893364;29;20268;-65
2023/08/17 04:47:35;;;;;;;15.93;4.18;;;15.80;99.90;;;;;;4891965;29;20272;-67
2023/08/17 04:50:02;;;;;;;8.57;3.92;;;15.90;99.90;;;;;;4889891;29;20188;-66
2023/08/17 04:52:28;;;;;;;9.02;4.25;;;15.80;99.90;;;;;;4892028;29;20264;-66
2023/08/17 04:54:54;;;;;;;19.35;8.57;;;15.80;99.90;;;;;;4885062;29;20658;-68
2023/08/17 04:57:20;;;;;;;15.02;7.22;;;15.80;99.90;;;;;;4892300;29;20251;-67
2023/08/17 04:59:46;;;;;;;11.70;7.65;;;15.80;99.90;;;;;;4894131;29;20212;-66
2023/08/17 05:02:13;;;;;;;15.27;7.25;;;15.80;99.90;;;;;;4887495;29;20233;-67
2023/08/17 05:04:39;;;;;;;13.63;8.82;;;15.80;99.90;;;;;;4891418;29;20191;-66
2023/08/17 05:07:06;;;;;;;11.98;8.40;;;15.80;99.90;;;;;;4892884;29;20231;-66
2023/08/17 05:09:32;;;;;;;13.75;5.97;;;15.80;99.90;;;;;;4902460;29;20658;-65
2023/08/17 05:11:59;;;;;;;16.08;6.20;;;15.80;99.90;;;;;;4896016;29;20227;-65
2023/08/17 05:14:25;;;;;;;11.70;6.28;;;15.80;99.90;;;;;;4896733;29;20237;-64
2023/08/17 05:16:51;;;;;;;14.93;8.38;;;15.80;99.90;;;;;;4893554;29;20216;-64
2023/08/17 05:19:17;;;;;;;8.45;3.60;;;15.80;99.90;;;;;;4908012;29;20189;-67
2023/08/17 05:21:43;;;;;;;14.02;6.65;;;15.80;99.90;;;;;;4909648;29;20263;-63
2023/08/17 05:24:09;;;;;;;12.48;6.00;;;15.90;99.90;;;;;;4886964;29;20669;-62
2023/08/17 05:26:35;;;;;;;11.13;3.70;;;15.90;99.90;;;;;;4913067;29;20188;-63
2023/08/17 05:29:01;;;;;;;15.43;5.45;;;16.00;99.90;;;;;;4899717;29;20193;-62
2023/08/17 05:31:28;;;;;;;14.35;6.32;;;16.00;99.90;;;;;;4879159;29;20233;-64
2023/08/17 05:33:54;;;;;;;10.23;3.30;;;16.10;99.90;;;;;;4891911;29;20193;-65
2023/08/17 05:36:23;;;;;;;11.98;4.40;;;16.10;99.90;;;;;;4896986;29;20216;-65
2023/08/17 05:38:49;;;;;;;11.85;4.07;;;16.20;99.90;;;;;;4898510;29;20535;-63
2023/08/17 05:41:17;;;;;;;8.68;3.60;;;16.20;99.90;;;;;;4897247;29;20235;-64
2023/08/17 05:43:43;;;;;;;11.95;3.35;;;16.30;99.90;;;;;;4896604;29;20181;-65
2023/08/17 05:46:09;;;;;;;6.38;2.90;;;16.40;99.90;;;;;;4897816;29;20204;-65
2023/08/17 05:48:35;;;;;;;6.68;3.00;;;16.40;99.90;;;;;;4894860;29;20729;-64
2023/08/17 05:51:01;;;;;;;10.13;3.17;;;16.50;99.90;;;;;;4894715;29;20200;-64
2023/08/17 05:53:27;;;;;;;8.20;3.10;;;16.50;99.90;;;;;;4885177;29;20713;-66
2023/08/17 05:55:52;;;;;;;10.88;3.40;;;16.60;99.90;;;;;;4894158;29;20205;-64
2023/08/17 05:58:18;;;;;;;11.63;3.28;;;16.70;99.90;;;;;;4888907;29;20245;-63
2023/08/17 06:00:44;;;;;;;10.18;2.83;;;16.70;99.90;;;;;;4882135;29;20619;-66
2023/08/17 06:03:10;;;;;;;9.02;2.78;;;16.80;99.90;;;;;;4883517;29;20189;-64
2023/08/17 06:05:36;;;;;;;4.88;2.45;;;16.90;99.90;;;;;;4892353;29;20200;-63
2023/08/17 06:08:05;;;;;;;8.65;3.13;;;16.90;99.90;;;;;;4898012;29;20661;-67
2023/08/17 06:10:31;;;;;;;7.88;3.80;;;17.00;99.90;;;;;;4898997;29;20188;-62
2023/08/17 06:12:57;;;;;;;6.18;2.50;;;17.00;99.90;;;;;;4885084;29;20663;-63
2023/08/17 06:15:24;;;;;;;7.88;2.88;;;17.10;99.90;;;;;;4878999;29;20185;-65
2023/08/17 06:17:50;;;;;;;6.22;2.55;;;17.20;99.90;;;;;;4881637;29;20276;-64
2023/08/17 06:20:16;;;;;;;7.95;2.67;;;17.20;99.90;;;;;;4890256;29;20268;-62
2023/08/17 06:22:42;;;;;;;8.65;2.47;;;17.30;99.90;;;;;;4891140;29;20196;-63
2023/08/17 06:25:09;;;;;;;9.73;2.75;;;17.40;99.90;;;;;;4893974;29;20711;-62
2023/08/17 06:27:35;;;;;;;9.52;2.78;;;17.40;99.90;;;;;;4884468;29;20196;-63
2023/08/17 06:30:03;;;;;;;13.15;2.50;;;17.50;99.90;;;;;;4892261;29;20236;-63
2023/08/17 06:32:30;;;;;;;6.40;2.30;;;17.60;99.90;;;;;;4892147;29;20188;-64
2023/08/17 06:34:57;;;;;;;5.50;2.20;;;17.60;99.90;;;;;;4891392;29;20198;-64
2023/08/17 06:37:23;;;;;;;6.75;2.20;;;17.70;99.90;;;;;;4883190;29;20231;-64
2023/08/17 06:39:49;;;;;;;9.75;2.35;;;17.70;99.90;;;;;;4889019;29;20240;-64
2023/08/17 06:42:15;;;;;;;8.82;2.80;;;17.80;99.90;;;;;;4894833;29;20681;-64
2023/08/17 06:44:42;;;;;;;8.77;2.53;;;17.80;99.90;;;;;;4887583;29;20196;-65
2023/08/17 06:47:07;;;;;;;10.65;3.88;;;17.80;99.90;;;;;;4888424;29;20185;-65
2023/08/17 06:49:34;;;;;;;6.97;2.53;;;17.80;99.90;;;;;;4891235;29;20199;-65
2023/08/17 06:52:00;;;;;;;5.80;2.22;;;17.90;99.90;;;;;;4891559;29;20296;-64
2023/08/17 06:54:26;;;;;;;4.97;2.10;;;17.90;99.90;;;;;;4888175;29;20672;-63
2023/08/17 06:56:52;;;;;;;8.20;2.00;;;18.00;99.90;;;;;;4892559;29;20232;-62
2023/08/17 06:59:18;;;;;;;6.60;1.80;;;18.10;99.90;;;;;;4882394;29;20227;-64
2023/08/17 07:01:44;;;;;;;8.85;2.00;;;18.20;99.90;;;;;;4904659;29;20232;-62
2023/08/17 07:04:10;;;;;;;7.55;2.05;;;18.40;99.90;;;;;;4891739;29;20243;-63
2023/08/17 07:06:36;;;;;;;4.57;1.92;;;18.40;99.90;;;;;;4896134;29;20203;-65
2023/08/17 07:09:04;;;;;;;8.52;1.90;;;18.50;99.90;;;;;;4891323;29;20566;-65
2023/08/17 07:11:31;;;;;;;6.97;1.80;;;18.50;99.90;;;;;;4889939;29;20193;-65
2023/08/17 07:13:57;;;;;;;7.25;1.90;;;18.50;99.90;;;;;;4896099;29;20535;-66
2023/08/17 07:16:23;;;;;;;7.65;1.90;;;18.60;99.90;;;;;;4893455;29;20217;-65
2023/08/17 07:18:49;;;;;;;9.63;1.90;;;18.60;99.90;;;;;;4878333;29;20197;-67
2023/08/17 07:21:15;;;;;;;4.65;1.70;;;18.50;99.90;;;;;;4894226;29;20241;-65
2023/08/17 07:23:45;;;;;;;5.75;2.00;;;18.50;99.90;;;;;;4882566;29;20189;-66
2023/08/17 07:26:11;;;;;;;7.00;2.00;;;18.50;99.90;;;;;;4878359;29;20273;-65
2023/08/17 07:28:37;;;;;;;8.93;2.00;;;18.50;99.90;;;;;;4879563;29;20214;-65
2023/08/17 07:31:03;;;;;;;5.90;1.65;;;18.50;99.90;;;;;;4905536;29;20267;-64
2023/08/17 07:33:51;;;;;;;4.70;1.90;;;18.60;99.90;;;;;;4885451;29;20185;-67
2023/08/17 07:36:17;;;;;;;4.85;1.80;;;18.70;99.90;;;;;;4875008;29;20744;-65
2023/08/17 07:38:43;;;;;;;6.57;1.60;;;18.70;99.90;;;;;;4881766;29;20197;-65
2023/08/17 07:41:09;;;;;;;5.15;1.70;;;18.70;99.90;;;;;;4893018;29;20197;-65
2023/08/17 07:43:35;;;;;;;8.05;2.22;;;18.70;99.90;;;;;;4895813;29;20200;-65
2023/08/17 07:46:01;;;;;;;5.85;2.00;;;18.80;99.90;;;;;;4893301;29;20248;-66
2023/08/17 07:48:27;;;;;;;4.43;1.70;;;18.80;99.90;;;;;;4889126;29;20626;-64
2023/08/17 07:50:53;;;;;;;7.82;1.67;;;18.80;99.90;;;;;;4893269;29;20200;-65
2023/08/17 07:53:19;;;;;;;4.55;1.48;;;18.90;99.90;;;;;;4897234;29;20683;-64
2023/08/17 07:55:45;;;;;;;5.53;1.85;;;19.00;99.90;;;;;;4896675;29;20201;-65
2023/08/17 07:58:12;;;;;;;6.00;2.00;;;19.10;99.90;;;;;;4892940;29;20188;-65
2023/08/17 08:00:38;;;;;;;5.07;1.42;;;19.20;99.90;;;;;;4879804;29;20195;-66
2023/08/17 08:03:04;;;;;;;6.07;1.85;;;19.30;99.90;;;;;;4895609;29;20710;-64
2023/08/17 08:05:30;;;;;;;4.32;1.30;;;19.40;99.90;;;;;;4878465;29;20265;-65
2023/08/17 08:07:56;;;;;;;4.15;1.30;;;19.40;99.90;;;;;;4875831;29;20272;-62
2023/08/17 08:10:22;;;;;;;4.38;1.77;;;19.50;99.90;;;;;;4892675;29;20189;-66
2023/08/17 08:12:48;;;;;;;4.40;1.80;;;19.50;99.90;;;;;;4895741;29;20196;-63
2023/08/17 08:15:14;;;;;;;6.25;1.77;;;19.50;99.90;;;;;;4879592;29;20581;-64
2023/08/17 08:17:40;;;;;;;6.28;1.58;;;19.50;99.90;;;;;;4892511;29;20224;-65
2023/08/17 08:20:07;;;;;;;6.40;1.73;;;19.50;99.90;;;;;;4885756;29;20692;-64
2023/08/17 08:22:33;;;;;;;4.32;1.55;;;19.50;99.90;;;;;;4895127;29;20219;-66
2023/08/17 08:24:59;;;;;;;3.30;1.30;;;19.50;99.90;;;;;;4890925;29;20232;-64
2023/08/17 08:27:26;;;;;;;3.40;1.25;;;19.60;99.90;;;;;;4904626;29;20280;-64
2023/08/17 08:29:52;;;;;;;10.05;1.70;;;19.60;99.90;;;;;;4894480;29;20705;-64
2023/08/17 08:32:18;;;;;;;5.72;1.50;;;19.60;99.90;;;;;;4896359;29;20669;-65
2023/08/17 08:34:43;;;;;;;4.95;1.50;;;19.60;99.90;;;;;;4872942;29;20188;-64
2023/08/17 08:37:09;;;;;;;4.30;1.60;;;19.70;99.90;;;;;;4877694;29;20591;-64
2023/08/17 08:39:52;;;;;;;3.67;1.50;;;19.60;99.90;;;;;;4881246;29;20210;-63
2023/08/17 08:42:19;;;;;;;11.45;1.50;;;19.70;99.90;;;;;;4885833;29;20185;-65
2023/08/17 08:44:46;;;;;;;5.78;1.65;;;19.80;99.90;;;;;;4898293;29;20192;-65
2023/08/17 08:47:13;;;;;;;6.32;1.52;;;19.90;99.90;;;;;;4893246;29;20193;-65
2023/08/17 08:49:57;;;;;;;4.72;1.65;;;19.80;99.90;;;;;;4905835;29;20275;-64
2023/08/17 08:52:27;;;;;;;4.55;1.60;;;19.90;99.90;;;;;;4895103;29;20202;-65
2023/08/17 08:54:57;;;;;;;3.97;1.50;;;19.90;99.90;;;;;;4913938;29;20720;-64
2023/08/17 08:57:23;;;;;;;4.38;1.77;;;19.90;99.90;;;;;;4898921;29;20291;-64
2023/08/17 08:59:49;;;;;;;6.57;1.95;;;19.90;99.90;;;;;;4898425;29;20192;-65
2023/08/17 09:02:16;;;;;;;7.07;1.60;;;19.90;99.90;;;;;;4900002;29;20283;-64
2023/08/17 09:04:46;;;;;;;3.90;1.45;;;20.00;99.90;;;;;;4890634;29;20280;-64
2023/08/17 09:07:13;;;;;;;3.72;1.30;;;20.00;99.90;;;;;;4877503;29;20233;-66
2023/08/17 09:09:39;;;;;;;3.83;1.40;;;20.10;99.90;;;;;;4899879;29;20185;-64
2023/08/17 09:12:09;;;;;;;7.20;1.38;;;20.20;99.90;;;;;;4914455;29;20248;-66
2023/08/17 09:14:37;;;;;;;5.90;1.40;;;20.30;99.90;;;;;;4880555;29;20181;-66
2023/08/17 09:17:04;;;;;;;4.53;1.40;;;20.30;99.90;;;;;;4898081;29;20228;-65
2023/08/17 09:19:34;;;;;;;5.93;1.38;;;20.40;99.90;;;;;;4899939;29;20196;-65
2023/08/17 09:22:01;;;;;;;5.50;1.75;;;20.40;99.90;;;;;;4897869;29;20188;-64
2023/08/17 09:24:36;;;;;;;4.28;1.27;;;20.50;99.90;;;;;;4891507;29;20192;-64
2023/08/17 09:27:03;;;;;;;6.03;1.20;;;20.60;99.90;;;;;;4889410;29;20192;-66
2023/08/17 09:29:36;;;;;;;3.70;1.50;;;20.60;99.90;;;;;;4899326;29;20646;-65
2023/08/17 09:32:07;;;;;;;3.58;1.13;;;20.50;99.90;;;;;;4897759;29;20633;-65
2023/08/17 09:34:32;;;;;;;4.20;1.20;;;20.50;99.90;;;;;;4898291;29;20220;-64
2023/08/17 09:37:05;;;;;;;4.50;1.55;;;20.40;99.90;;;;;;4897818;29;20264;-65
2023/08/17 09:39:32;;;;;;;3.10;1.27;;;20.40;99.90;;;;;;4880512;29;20697;-64
2023/08/17 09:41:59;;;;;;;3.30;1.23;;;20.20;99.90;;;;;;4891992;29;20252;-63
2023/08/17 09:44:25;;;;;;;5.13;1.40;;;20.20;99.90;;;;;;4884672;29;20194;-64
2023/08/17 09:46:51;;;;;;;3.33;1.45;;;20.20;99.90;;;;;;4893586;29;20198;-63
2023/08/17 09:49:19;;;;;;;4.82;1.55;;;20.10;99.90;;;;;;4894898;29;20192;-65
2023/08/17 09:51:44;;;;;;;6.70;1.42;;;20.20;99.90;;;;;;4879072;29;20205;-65
2023/08/17 09:54:31;;;;;;;5.28;1.60;;;20.20;99.90;;;;;;4896066;29;20185;-63
2023/08/17 09:57:01;;;;;;;7.45;1.75;;;20.20;99.90;;;;;;4895988;29;20225;-65
2023/08/17 09:59:27;;;;;;;7.35;1.98;;;20.30;99.90;;;;;;4896870;29;20189;-64
2023/08/17 10:01:54;;;;;;;3.92;1.45;;;20.40;99.90;;;;;;4896945;29;20227;-65
2023/08/17 10:04:22;;;;;;;8.65;2.63;;;20.50;99.90;;;;;;4897861;29;20188;-66
2023/08/17 10:07:16;;;;;;;7.40;1.40;;;20.60;99.90;;;;;;4893386;29;20185;-65
2023/08/17 10:09:46;;;;;;;4.13;1.30;;;20.60;99.90;;;;;;4889972;29;20193;-66
2023/08/17 10:12:16;;;;;;;5.00;1.92;;;20.70;99.90;;;;;;4893543;29;20193;-65
2023/08/17 10:14:58;;;;;;;4.50;1.75;;;20.70;99.90;;;;;;4897302;29;20276;-64
2023/08/17 10:17:27;;;;;;;6.22;1.80;;;20.70;99.90;;;;;;4890811;29;20527;-66
2023/08/17 10:19:56;;;;;;;7.25;2.00;;;20.70;99.90;;;;;;4911096;29;20196;-65
2023/08/17 10:22:39;;;;;;;6.55;1.20;;;20.70;99.90;;;;;;4898776;29;20671;-66
2023/08/17 10:25:07;;;;;;;6.50;1.63;;;20.70;99.90;;;;;;4898892;29;20193;-65
2023/08/17 10:27:34;;;;;;;4.55;1.50;;;20.70;99.90;;;;;;4889460;29;20214;-65
2023/08/17 10:30:01;;;;;;;13.15;1.80;;;20.80;99.90;;;;;;4897797;29;20236;-64
2023/08/17 10:32:28;;;;;;;2.55;1.40;;;20.80;99.90;;;;;;4897958;29;20185;-64
2023/08/17 10:34:54;;;;;;;6.10;1.60;;;20.80;99.90;;;;;;4898013;29;20237;-64
2023/08/17 10:37:21;;;;;;;7.07;1.40;;;20.90;99.90;;;;;;4894666;29;20220;-65
2023/08/17 10:39:48;;;;;;;7.25;1.60;;;20.90;99.90;;;;;;4890317;29;20224;-64
2023/08/17 10:42:16;;;;;;;3.78;1.55;;;21.00;99.90;;;;;;4892088;29;20189;-66
2023/08/17 10:44:49;;;;;;;8.32;2.45;;;21.10;99.90;;;;;;4898020;29;20189;-65
2023/08/17 10:47:22;;;;;;;5.32;1.60;;;21.30;99.90;;;;;;4897127;29;20355;-66
2023/08/17 10:49:55;;;;;;;7.95;1.60;;;21.50;99.90;;;;;;4906167;29;20189;-65
2023/08/17 10:52:29;;;;;;;5.95;1.63;;;21.60;99.90;;;;;;4892558;29;20189;-66
2023/08/17 10:54:56;;;;;;;6.88;2.03;;;21.80;99.90;;;;;;4898119;29;20180;-66
2023/08/17 10:57:31;;;;;;;5.88;1.95;;;22.00;99.90;;;;;;4897944;29;20209;-65
2023/08/17 11:00:31;;;;;;;7.22;1.75;;;22.30;99.90;;;;;;4891664;29;20283;-66
2023/08/17 11:03:00;;;;;;;9.40;2.03;;;22.50;99.90;;;;;;4889167;29;20192;-66
2023/08/17 11:05:46;;;;;;;7.72;1.75;;;22.70;99.90;;;;;;4885472;29;20650;-66
2023/08/17 11:08:29;;;;;;;6.88;1.90;;;22.90;99.90;;;;;;4897905;29;20199;-66
2023/08/17 11:11:05;;;;;;;7.47;2.13;;;22.90;99.90;;;;;;4892688;29;20199;-66
2023/08/17 11:13:36;;;;;;;5.07;1.42;;;23.00;99.90;;;;;;4897604;29;20188;-67
2023/08/17 11:16:03;;;;;;;6.05;1.73;;;23.20;99.90;;;;;;4880899;29;20222;-67
2023/08/17 11:18:30;;;;;;;7.10;2.08;;;23.30;99.90;;;;;;4897242;29;20208;-67
2023/08/17 11:20:57;;;;;;;5.90;1.85;;;23.40;99.90;;;;;;4889586;29;20200;-66
2023/08/17 11:23:23;;;;;;;8.57;1.98;;;23.30;99.90;;;;;;4896275;29;20197;-66
2023/08/17 11:25:52;;;;;;;6.30;1.90;;;23.30;99.90;;;;;;4897497;29;20664;-66
2023/08/17 11:28:19;;;;;;;10.77;2.13;;;23.20;99.90;;;;;;4897409;29;20660;-65
2023/08/17 11:30:45;;;;;;;7.68;1.92;;;23.20;99.90;;;;;;4886726;29;20253;-65
2023/08/17 11:33:11;;;;;;;10.73;2.13;;;23.20;99.90;;;;;;4896081;29;20200;-66
2023/08/17 11:35:37;;;;;;;5.60;1.77;;;23.20;99.90;;;;;;4897602;29;20285;-67
2023/08/17 11:38:05;;;;;;;7.97;2.00;;;23.30;99.90;;;;;;4897206;29;20736;-67
2023/08/17 11:40:31;;;;;;;6.57;1.95;;;23.20;99.90;;;;;;4894764;29;20191;-65
2023/08/17 11:42:58;;;;;;;7.15;2.20;;;23.20;99.90;;;;;;4892728;29;20196;-65
2023/08/17 11:45:24;;;;;;;8.88;2.72;;;23.20;99.90;;;;;;4897447;29;20192;-65
2023/08/17 11:47:50;;;;;;;6.03;2.05;;;23.20;99.90;;;;;;4896785;29;20272;-65
2023/08/17 11:50:17;;;;;;;6.53;2.83;;;23.20;99.90;;;;;;4897274;29;20201;-64
2023/08/17 11:52:43;;;;;;;11.23;2.35;;;23.10;99.90;;;;;;4895592;29;20200;-65
2023/08/17 11:55:09;;;;;;;5.40;2.38;;;23.00;99.90;;;;;;4896139;29;20609;-64
2023/08/17 11:57:36;;;;;;;9.20;2.33;;;23.00;99.90;;;;;;4895847;29;20217;-64
2023/08/17 12:00:06;;;;;;;6.00;2.22;;;22.90;99.90;;;;;;4897166;29;20200;-65
2023/08/17 12:02:37;;;;;;;8.82;2.20;;;22.90;99.90;;;;;;4890569;29;20197;-66
2023/08/17 12:05:07;;;;;;;8.23;2.30;;;22.90;99.90;;;;;;4892604;29;20853;-65
2023/08/17 12:07:33;;;;;;;7.00;2.03;;;22.80;99.90;;;;;;4877829;29;20196;-65
2023/08/17 12:09:59;;;;;;;8.38;2.47;;;22.80;99.90;;;;;;4904773;29;20272;-66
2023/08/17 12:12:27;;;;;;;12.82;3.95;;;22.90;99.90;;;;;;4889856;29;20359;-65
2023/08/17 12:14:54;;;;;;;5.45;2.20;;;23.00;99.90;;;;;;4895038;29;20192;-65
2023/08/17 12:17:21;;;;;;;8.15;2.40;;;23.10;99.90;;;;;;4892160;29;20700;-65
2023/08/17 12:19:53;;;;;;;4.40;1.90;;;23.20;99.90;;;;;;4879207;29;20197;-64
2023/08/17 12:22:23;;;;;;;7.20;1.98;;;23.30;99.90;;;;;;4895518;29;20200;-65
2023/08/17 12:24:49;;;;;;;7.53;2.13;;;23.30;99.90;;;;;;4887696;29;20184;-65
2023/08/17 12:27:15;;;;;;;5.93;1.80;;;23.30;99.90;;;;;;4896570;29;20199;-65
2023/08/17 12:29:51;;;;;;;6.10;1.98;;;23.30;99.90;;;;;;4886181;29;20685;-65
2023/08/17 12:32:18;;;;;;;5.82;1.60;;;23.40;99.90;;;;;;4892770;29;20191;-64
2023/08/17 12:34:44;;;;;;;4.45;1.70;;;23.40;99.90;;;;;;4896674;29;20196;-64
2023/08/17 12:37:11;;;;;;;6.13;2.13;;;23.30;99.90;;;;;;4879524;29;20219;-65
2023/08/17 12:39:38;;;;;;;7.20;2.20;;;23.30;99.90;;;;;;4890319;29;20197;-66
2023/08/17 12:42:04;;;;;;;5.40;2.35;;;23.10;99.90;;;;;;4894466;29;20216;-65
2023/08/17 12:44:31;;;;;;;5.43;2.00;;;23.00;99.90;;;;;;4896768;29;20240;-64
2023/08/17 12:46:57;;;;;;;4.13;1.98;;;23.00;99.90;;;;;;4895299;29;20201;-65
2023/08/17 12:49:24;;;;;;;5.57;2.10;;;23.00;99.90;;;;;;4892534;29;20575;-64